Time;durP1;ratioP1;P1;durP2;ratioP2;P2;SDS_P1;SDS_P2;PMS_P1;PMS_P2;Temp;Humidity;BMP_temperature;BMP_pressure;BME280_temperature;BME280_humidity;BME280_pressure;Samples;Min_cycle;Max_cycle;Signal;HPM_P1;HPM_P2
2023/05/07 00:01:02;;;;;;;34.05;30.83;;;23.60;1.00;;;;;;5033383;28;20435;-62
2023/05/07 00:03:28;;;;;;;35.08;31.42;;;23.60;1.00;;;;;;5032056;28;20025;-62
2023/05/07 00:05:54;;;;;;;32.92;29.85;;;23.60;1.00;;;;;;5033227;28;20391;-62
2023/05/07 00:08:20;;;;;;;35.75;32.45;;;23.50;1.00;;;;;;5033355;28;20025;-62
2023/05/07 00:10:46;;;;;;;36.08;32.58;;;23.60;1.00;;;;;;5033142;28;20022;-61
2023/05/07 00:13:12;;;;;;;35.63;32.15;;;23.60;1.00;;;;;;5047301;28;20030;-62
2023/05/07 00:15:37;;;;;;;35.42;31.92;;;23.60;1.00;;;;;;5033442;28;20080;-61
2023/05/07 00:18:03;;;;;;;36.53;32.63;;;23.60;1.00;;;;;;5033168;28;20025;-62
2023/05/07 00:20:29;;;;;;;21.38;16.83;;;23.60;1.00;;;;;;5033317;28;20079;-62
2023/05/07 00:22:55;;;;;;;13.63;10.32;;;23.50;1.00;;;;;;5033103;28;20464;-61
2023/05/07 00:25:21;;;;;;;10.30;7.80;;;23.30;1.00;;;;;;5033029;28;20079;-61
2023/05/07 00:27:46;;;;;;;6.75;6.10;;;23.30;1.00;;;;;;5033141;28;20022;-61
2023/05/07 00:30:12;;;;;;;7.20;5.15;;;23.20;1.00;;;;;;5032204;28;20096;-61
2023/05/07 00:32:38;;;;;;;7.03;4.72;;;23.30;1.00;;;;;;5033305;28;20550;-62
2023/05/07 00:35:05;;;;;;;4.32;3.22;;;23.30;1.00;;;;;;5033316;28;20112;-62
2023/05/07 00:37:31;;;;;;;5.80;3.15;;;23.30;1.00;;;;;;5032794;28;20061;-62
2023/05/07 00:39:57;;;;;;;5.05;2.65;;;23.20;1.00;;;;;;5031665;28;20100;-62
2023/05/07 00:42:23;;;;;;;3.85;2.90;;;23.10;1.00;;;;;;5032844;28;20030;-61
2023/05/07 00:44:50;;;;;;;2.13;2.00;;;23.20;1.00;;;;;;5032931;28;20017;-62
2023/05/07 00:47:16;;;;;;;3.80;2.50;;;23.10;1.00;;;;;;5032702;28;20017;-62
2023/05/07 00:49:43;;;;;;;3.83;1.88;;;23.10;1.00;;;;;;5032763;28;20033;-62
2023/05/07 00:52:13;;;;;;;3.50;2.38;;;23.10;1.00;;;;;;5032785;28;20488;-61
2023/05/07 00:54:40;;;;;;;2.22;1.85;;;23.10;1.00;;;;;;5032709;28;20040;-62
2023/05/07 00:57:06;;;;;;;4.65;2.50;;;23.00;1.00;;;;;;5032759;28;20025;-62
2023/05/07 00:59:32;;;;;;;5.70;2.75;;;23.00;1.00;;;;;;5032893;28;20045;-62
2023/05/07 01:01:59;;;;;;;3.10;2.30;;;23.00;1.00;;;;;;5032521;28;20049;-62
2023/05/07 01:04:26;;;;;;;2.50;2.28;;;23.10;1.00;;;;;;5032629;28;20483;-61
2023/05/07 01:06:53;;;;;;;2.58;2.38;;;23.00;1.00;;;;;;5034216;28;20032;-61
2023/05/07 01:09:19;;;;;;;5.25;2.92;;;23.00;1.00;;;;;;5036779;28;20025;-62
2023/05/07 01:11:46;;;;;;;5.60;2.60;;;23.10;1.00;;;;;;5044433;28;20040;-62
2023/05/07 01:14:12;;;;;;;3.75;2.72;;;23.10;1.00;;;;;;5042424;28;20033;-62
2023/05/07 01:16:38;;;;;;;5.07;3.00;;;23.10;1.00;;;;;;5021725;28;20426;-61
2023/05/07 01:19:03;;;;;;;5.82;3.45;;;23.10;1.00;;;;;;5035521;28;20024;-61
2023/05/07 01:21:33;;;;;;;4.13;3.15;;;23.10;1.00;;;;;;5021961;28;20056;-62
2023/05/07 01:23:59;;;;;;;4.53;3.28;;;23.00;1.00;;;;;;5035205;28;20087;-62
2023/05/07 01:26:25;;;;;;;4.70;4.00;;;23.00;1.00;;;;;;5035428;28;20034;-61
2023/05/07 01:28:57;;;;;;;5.53;3.90;;;23.00;1.00;;;;;;5035503;28;20040;-62
2023/05/07 01:31:24;;;;;;;5.43;4.93;;;23.00;1.00;;;;;;5035581;28;20025;-61
2023/05/07 01:33:51;;;;;;;5.53;4.95;;;23.00;1.00;;;;;;5035537;28;20029;-62
2023/05/07 01:36:19;;;;;;;7.20;4.78;;;23.00;1.00;;;;;;5036499;28;20160;-62
2023/05/07 01:38:45;;;;;;;8.02;4.90;;;23.00;1.00;;;;;;5036494;28;20033;-62
2023/05/07 01:41:12;;;;;;;4.90;4.32;;;22.90;1.00;;;;;;5036418;28;20099;-62
2023/05/07 01:43:37;;;;;;;4.97;4.30;;;22.90;1.00;;;;;;5036185;28;20026;-62
2023/05/07 01:46:05;;;;;;;4.65;3.78;;;22.90;1.00;;;;;;5034916;28;20042;-62
2023/05/07 01:48:31;;;;;;;3.72;3.45;;;22.90;1.00;;;;;;5034474;28;20471;-62
2023/05/07 01:50:57;;;;;;;4.32;3.92;;;22.90;1.00;;;;;;5035883;28;20426;-61
2023/05/07 01:53:22;;;;;;;3.95;3.65;;;22.80;1.00;;;;;;5035809;28;20030;-62
2023/05/07 01:55:48;;;;;;;3.35;3.05;;;22.80;1.00;;;;;;5035725;28;20384;-62
2023/05/07 01:58:14;;;;;;;5.43;2.92;;;22.80;1.00;;;;;;5035618;28;20026;-62
2023/05/07 02:00:40;;;;;;;3.25;2.95;;;22.70;1.00;;;;;;5049617;28;20025;-61
2023/05/07 02:03:06;;;;;;;2.83;2.63;;;22.70;1.00;;;;;;5035645;28;20076;-61
2023/05/07 02:05:31;;;;;;;3.10;2.90;;;22.80;1.00;;;;;;5035675;28;20021;-61
2023/05/07 02:07:57;;;;;;;2.80;2.60;;;22.60;1.00;;;;;;5035864;28;20025;-61
2023/05/07 02:10:23;;;;;;;2.15;2.05;;;22.70;1.00;;;;;;5035451;28;20387;-61
2023/05/07 02:12:48;;;;;;;1.60;1.50;;;22.70;1.00;;;;;;5035465;28;20072;-62
2023/05/07 02:15:14;;;;;;;3.38;1.50;;;22.50;1.00;;;;;;5035686;28;20018;-62
2023/05/07 02:18:03;;;;;;;1.73;1.58;;;22.50;1.00;;;;;;5035141;28;20360;-61
2023/05/07 02:20:29;;;;;;;2.10;2.00;;;22.40;1.00;;;;;;5035383;28;20025;-61
2023/05/07 02:22:54;;;;;;;3.00;1.60;;;22.30;1.00;;;;;;5026829;28;20390;-61
2023/05/07 02:25:20;;;;;;;2.80;1.35;;;22.40;1.00;;;;;;5035308;28;20479;-61
2023/05/07 02:27:46;;;;;;;2.10;1.30;;;22.30;1.00;;;;;;5035130;28;20024;-61
2023/05/07 02:30:12;;;;;;;3.97;1.23;;;22.30;1.00;;;;;;5035229;28;20027;-61
2023/05/07 02:32:37;;;;;;;3.45;1.17;;;22.20;1.00;;;;;;5035244;28;20052;-62
2023/05/07 02:35:05;;;;;;;4.47;1.10;;;22.10;1.00;;;;;;5029942;28;20050;-61
2023/05/07 02:37:30;;;;;;;1.45;1.08;;;22.10;1.00;;;;;;5028170;28;20053;-61
2023/05/07 02:39:56;;;;;;;1.35;1.25;;;22.10;1.00;;;;;;5033387;28;20061;-61
2023/05/07 02:42:22;;;;;;;2.72;1.30;;;22.10;1.00;;;;;;5035055;28;20033;-61
2023/05/07 02:44:47;;;;;;;3.20;1.50;;;22.10;1.00;;;;;;5035134;28;20523;-61
2023/05/07 02:47:14;;;;;;;1.38;1.00;;;22.00;1.00;;;;;;5035119;28;20383;-61
2023/05/07 02:49:40;;;;;;;4.00;1.10;;;22.00;1.00;;;;;;5034869;28;20113;-61
2023/05/07 02:52:06;;;;;;;1.05;0.95;;;22.00;1.00;;;;;;5034638;28;20572;-61
2023/05/07 02:54:32;;;;;;;2.70;1.20;;;22.00;1.00;;;;;;5034782;28;20032;-61
2023/05/07 02:56:58;;;;;;;2.05;0.88;;;22.00;1.00;;;;;;5033557;28;20025;-62
2023/05/07 02:59:26;;;;;;;1.05;1.00;;;21.90;1.00;;;;;;5034580;28;20052;-62
2023/05/07 03:01:51;;;;;;;1.95;0.98;;;21.90;1.00;;;;;;5034347;28;20056;-62
2023/05/07 03:04:17;;;;;;;1.38;1.27;;;21.90;1.00;;;;;;5034556;28;20460;-62
2023/05/07 03:06:42;;;;;;;1.13;0.95;;;21.90;1.00;;;;;;5034370;28;20091;-61
2023/05/07 03:09:08;;;;;;;1.48;1.20;;;21.90;1.00;;;;;;5040942;28;20506;-62
2023/05/07 03:11:35;;;;;;;1.23;1.02;;;21.80;1.00;;;;;;5041880;28;20033;-61
2023/05/07 03:14:01;;;;;;;2.55;1.17;;;21.90;1.00;;;;;;5034243;28;20068;-61
2023/05/07 03:16:27;;;;;;;2.40;1.15;;;21.80;1.00;;;;;;5034319;28;20032;-61
2023/05/07 03:18:53;;;;;;;1.52;1.25;;;21.90;1.00;;;;;;5034061;28;20476;-61
2023/05/07 03:21:18;;;;;;;1.30;1.20;;;21.70;1.00;;;;;;5034141;28;20032;-62
2023/05/07 03:23:44;;;;;;;1.95;1.13;;;21.80;1.00;;;;;;5034001;28;20037;-62
2023/05/07 03:26:10;;;;;;;1.40;1.30;;;21.80;1.00;;;;;;5034408;28;20018;-62
2023/05/07 03:28:36;;;;;;;2.63;1.10;;;21.80;1.00;;;;;;5034134;28;20506;-65
2023/05/07 03:31:02;;;;;;;1.73;1.25;;;21.80;1.00;;;;;;5032991;28;20018;-62
2023/05/07 03:33:28;;;;;;;1.88;1.10;;;21.70;1.00;;;;;;5033937;28;20033;-62
2023/05/07 03:35:54;;;;;;;2.30;1.27;;;21.70;1.00;;;;;;5033890;28;20018;-63
2023/05/07 03:38:19;;;;;;;1.23;1.15;;;21.70;1.00;;;;;;5034081;28;20097;-62
2023/05/07 03:40:45;;;;;;;2.38;1.10;;;21.70;1.00;;;;;;5033732;28;20049;-62
2023/05/07 03:43:11;;;;;;;2.13;1.13;;;21.70;1.00;;;;;;5034099;28;20443;-62
2023/05/07 03:45:36;;;;;;;1.67;1.58;;;21.70;1.00;;;;;;5033868;28;20018;-62
2023/05/07 03:48:02;;;;;;;2.70;1.60;;;21.70;1.00;;;;;;5033643;28;20077;-62
2023/05/07 03:50:28;;;;;;;1.40;1.30;;;21.60;1.00;;;;;;5033696;28;20021;-62
2023/05/07 03:52:53;;;;;;;1.85;1.40;;;21.60;1.00;;;;;;5033952;28;20033;-62
2023/05/07 03:55:19;;;;;;;3.10;1.10;;;21.60;1.00;;;;;;5033560;28;20468;-62
2023/05/07 03:57:45;;;;;;;1.30;1.10;;;21.50;1.00;;;;;;5033890;28;20088;-64
2023/05/07 04:00:11;;;;;;;2.55;1.40;;;21.50;1.00;;;;;;5032269;28;20017;-62
2023/05/07 04:02:37;;;;;;;1.40;1.30;;;21.50;1.00;;;;;;5033646;28;20128;-65
2023/05/07 04:05:03;;;;;;;1.70;0.85;;;21.50;1.00;;;;;;5033773;28;20109;-62
2023/05/07 04:07:28;;;;;;;1.30;1.20;;;21.40;1.00;;;;;;5033528;28;20041;-62
2023/05/07 04:09:54;;;;;;;1.98;1.08;;;21.40;1.00;;;;;;5033351;28;20113;-62
2023/05/07 04:12:20;;;;;;;1.38;0.80;;;21.30;1.00;;;;;;5033363;28;20036;-62
2023/05/07 04:14:45;;;;;;;1.70;1.27;;;21.30;1.00;;;;;;5032521;28;20056;-62
2023/05/07 04:17:11;;;;;;;1.20;1.10;;;21.30;1.00;;;;;;5030302;28;20094;-63
2023/05/07 04:19:36;;;;;;;1.40;1.10;;;21.40;1.00;;;;;;5033492;28;20082;-62
2023/05/07 04:22:02;;;;;;;1.60;1.00;;;21.30;1.00;;;;;;5030088;28;20046;-62
2023/05/07 04:24:32;;;;;;;1.20;1.10;;;21.20;1.00;;;;;;5013967;28;20375;-62
2023/05/07 04:26:58;;;;;;;1.75;1.33;;;21.20;1.00;;;;;;5026746;28;20056;-61
2023/05/07 04:29:24;;;;;;;1.23;1.13;;;21.20;1.00;;;;;;5031732;28;20054;-61
2023/05/07 04:31:50;;;;;;;1.77;1.10;;;21.30;1.00;;;;;;5033231;28;20029;-62
2023/05/07 04:34:15;;;;;;;0.90;0.90;;;21.20;1.00;;;;;;5032844;28;20036;-61
2023/05/07 04:36:53;;;;;;;0.85;0.60;;;21.20;1.00;;;;;;5033016;28;20028;-61
2023/05/07 04:39:19;;;;;;;1.17;0.98;;;21.20;1.00;;;;;;5032662;28;20435;-61
2023/05/07 04:41:44;;;;;;;2.38;1.10;;;21.20;1.00;;;;;;5032499;28;20037;-61
2023/05/07 04:44:10;;;;;;;1.75;1.20;;;21.10;1.00;;;;;;5032887;28;20083;-61
2023/05/07 04:46:36;;;;;;;1.00;0.73;;;21.10;1.00;;;;;;5032778;28;20034;-61
2023/05/07 04:49:03;;;;;;;1.00;0.90;;;21.10;1.00;;;;;;5032732;28;20026;-61
2023/05/07 04:51:28;;;;;;;0.98;0.90;;;21.20;1.00;;;;;;5032718;28;20025;-61
2023/05/07 04:53:54;;;;;;;3.22;0.80;;;21.10;1.00;;;;;;5031540;28;20033;-62
2023/05/07 04:56:20;;;;;;;1.17;1.05;;;21.10;1.00;;;;;;5033056;28;20090;-61
2023/05/07 04:58:46;;;;;;;1.23;0.85;;;21.00;1.00;;;;;;5032350;28;20371;-62
2023/05/07 05:01:11;;;;;;;1.35;0.82;;;21.10;1.00;;;;;;5032710;28;20030;-61
2023/05/07 05:03:39;;;;;;;1.55;0.88;;;21.10;1.00;;;;;;5032462;28;20021;-61
2023/05/07 05:06:05;;;;;;;1.35;0.73;;;21.00;1.00;;;;;;5032960;28;20052;-61
2023/05/07 05:08:31;;;;;;;0.90;0.90;;;21.00;1.00;;;;;;5032602;28;20033;-62
2023/05/07 05:10:56;;;;;;;3.00;1.30;;;21.10;1.00;;;;;;5031743;28;20037;-61
2023/05/07 05:13:22;;;;;;;1.42;0.63;;;21.10;1.00;;;;;;5032670;28;20100;-61
2023/05/07 05:15:47;;;;;;;0.90;0.90;;;21.10;1.00;;;;;;5032435;28;20022;-61
2023/05/07 05:18:13;;;;;;;0.90;0.80;;;21.10;1.00;;;;;;5032629;28;20032;-61
2023/05/07 05:20:39;;;;;;;1.33;0.70;;;21.10;1.00;;;;;;5032511;28;20196;-61
2023/05/07 05:23:05;;;;;;;0.70;0.70;;;21.10;1.00;;;;;;5032410;28;20515;-61
2023/05/07 05:25:31;;;;;;;3.05;0.90;;;21.00;1.00;;;;;;5032263;28;20537;-61
2023/05/07 05:27:57;;;;;;;1.10;1.10;;;21.00;1.00;;;;;;5032347;28;20034;-61
2023/05/07 05:30:22;;;;;;;1.67;1.30;;;20.90;1.00;;;;;;5031303;28;20079;-61
2023/05/07 05:32:48;;;;;;;2.72;1.20;;;20.90;1.00;;;;;;5032495;28;20088;-61
2023/05/07 05:35:13;;;;;;;1.90;1.40;;;20.60;1.00;;;;;;5032420;28;20092;-61
2023/05/07 05:37:39;;;;;;;1.70;1.38;;;20.80;1.00;;;;;;5032292;28;20030;-61
2023/05/07 05:40:05;;;;;;;2.83;1.10;;;20.80;1.00;;;;;;5032268;28;20094;-61
2023/05/07 05:42:31;;;;;;;1.58;1.17;;;20.90;1.00;;;;;;5032239;28;20033;-61
2023/05/07 05:44:56;;;;;;;2.10;1.40;;;21.00;1.00;;;;;;5032294;28;20379;-61
2023/05/07 05:47:23;;;;;;;1.88;1.35;;;21.00;1.00;;;;;;5030954;28;20048;-61
2023/05/07 05:49:48;;;;;;;1.60;1.13;;;21.00;1.00;;;;;;5028835;28;20036;-61
2023/05/07 05:52:14;;;;;;;1.85;1.35;;;21.00;1.00;;;;;;5032581;28;20033;-61
2023/05/07 05:54:40;;;;;;;2.42;0.95;;;21.00;1.00;;;;;;5034798;28;20034;-61
2023/05/07 05:57:05;;;;;;;2.97;1.20;;;21.00;1.00;;;;;;5035741;28;20045;-61
2023/05/07 05:59:31;;;;;;;1.45;1.25;;;21.00;1.00;;;;;;5035714;28;20084;-61
2023/05/07 06:01:57;;;;;;;2.10;1.50;;;21.10;1.00;;;;;;5035724;28;20120;-61
2023/05/07 06:04:22;;;;;;;3.58;1.10;;;21.10;1.00;;;;;;5036067;28;20419;-61
2023/05/07 06:06:48;;;;;;;2.75;1.10;;;21.10;1.00;;;;;;5035754;28;20147;-61
2023/05/07 06:09:14;;;;;;;2.20;1.25;;;20.90;1.00;;;;;;5035453;28;20479;-61
2023/05/07 06:11:40;;;;;;;1.55;1.15;;;20.80;1.00;;;;;;5035507;28;20028;-61
2023/05/07 06:14:06;;;;;;;2.50;1.23;;;20.90;1.00;;;;;;5035518;28;20024;-61
2023/05/07 06:16:32;;;;;;;3.22;1.27;;;20.80;1.00;;;;;;5035733;28;20412;-61
2023/05/07 06:18:57;;;;;;;1.35;1.25;;;20.90;1.00;;;;;;5035503;28;20033;-61
2023/05/07 06:21:23;;;;;;;1.80;1.40;;;21.00;1.00;;;;;;5034199;28;20102;-61
2023/05/07 06:23:49;;;;;;;1.38;1.27;;;21.00;1.00;;;;;;5035250;28;20544;-61
2023/05/07 06:26:14;;;;;;;1.30;1.20;;;20.90;1.00;;;;;;5035277;28;20026;-61
2023/05/07 06:28:40;;;;;;;1.38;1.17;;;20.90;1.00;;;;;;5035120;28;20502;-61
2023/05/07 06:31:16;;;;;;;4.18;1.45;;;21.00;1.00;;;;;;5035375;28;20029;-61
2023/05/07 06:33:43;;;;;;;1.25;1.15;;;21.00;1.00;;;;;;5035097;28;20036;-61
2023/05/07 06:36:09;;;;;;;1.20;1.00;;;20.90;1.00;;;;;;5034903;28;20491;-62
2023/05/07 06:38:34;;;;;;;1.20;1.10;;;21.00;1.00;;;;;;5033777;28;20040;-61
2023/05/07 06:41:00;;;;;;;1.60;1.20;;;21.20;1.00;;;;;;5034862;28;20080;-61
2023/05/07 06:43:25;;;;;;;3.00;1.58;;;21.20;1.00;;;;;;5035104;28;20441;-61
2023/05/07 06:45:51;;;;;;;1.73;1.30;;;21.20;1.00;;;;;;5034756;28;20022;-61
2023/05/07 06:48:17;;;;;;;2.40;1.38;;;21.20;1.00;;;;;;5033641;28;20067;-61
2023/05/07 06:50:42;;;;;;;1.75;1.45;;;21.30;1.00;;;;;;5034659;28;20487;-61
2023/05/07 06:53:08;;;;;;;1.83;1.10;;;21.20;1.00;;;;;;5034944;28;20025;-61
2023/05/07 06:55:34;;;;;;;2.55;1.30;;;21.20;1.00;;;;;;5034747;28;20021;-61
2023/05/07 06:58:00;;;;;;;1.73;1.35;;;21.10;1.00;;;;;;5034712;28;20240;-61
2023/05/07 07:00:27;;;;;;;1.42;1.33;;;21.20;1.00;;;;;;5034781;28;20026;-62
2023/05/07 07:02:54;;;;;;;2.42;1.40;;;21.20;1.00;;;;;;5034703;28;20045;-62
2023/05/07 07:05:20;;;;;;;1.10;1.00;;;21.30;1.00;;;;;;5034484;28;20493;-62
2023/05/07 07:07:52;;;;;;;1.40;0.90;;;21.40;1.00;;;;;;5034429;28;20026;-62
2023/05/07 07:10:22;;;;;;;1.48;1.33;;;21.40;1.00;;;;;;5034475;28;20371;-62
2023/05/07 07:12:48;;;;;;;2.25;1.10;;;21.30;1.00;;;;;;5034433;28;20022;-62
2023/05/07 07:15:14;;;;;;;1.95;1.50;;;21.30;1.00;;;;;;5034523;28;20403;-62
2023/05/07 07:17:40;;;;;;;6.85;2.55;;;21.40;1.00;;;;;;5034257;28;20463;-61
2023/05/07 07:20:08;;;;;;;1.15;1.15;;;21.60;1.00;;;;;;5034261;28;20029;-62
2023/05/07 07:22:33;;;;;;;1.38;1.15;;;21.60;1.00;;;;;;5034195;28;20044;-62
2023/05/07 07:24:59;;;;;;;1.27;1.17;;;21.70;1.00;;;;;;5034109;28;20483;-62
2023/05/07 07:27:25;;;;;;;1.52;1.33;;;21.60;1.00;;;;;;5033936;28;20031;-61
2023/05/07 07:29:51;;;;;;;5.18;1.25;;;21.70;1.00;;;;;;5034364;28;20064;-62
2023/05/07 07:32:16;;;;;;;3.33;1.95;;;21.60;1.00;;;;;;5033845;28;20120;-62
2023/05/07 07:34:42;;;;;;;2.90;1.10;;;21.60;1.00;;;;;;5034179;28;20044;-62
2023/05/07 07:37:08;;;;;;;3.92;1.13;;;21.80;1.00;;;;;;5033932;28;20481;-62
2023/05/07 07:39:33;;;;;;;1.77;1.27;;;21.90;1.00;;;;;;5032372;28;20495;-62
2023/05/07 07:41:59;;;;;;;2.17;1.05;;;21.90;1.00;;;;;;5033928;28;20038;-62
2023/05/07 07:44:26;;;;;;;1.70;1.23;;;21.90;1.00;;;;;;5033779;28;20025;-62
2023/05/07 07:46:51;;;;;;;1.67;1.08;;;21.90;1.00;;;;;;5033715;28;20044;-62
2023/05/07 07:49:17;;;;;;;2.25;1.10;;;21.90;1.00;;;;;;5033671;28;20025;-62
2023/05/07 07:51:43;;;;;;;2.10;1.10;;;21.90;1.00;;;;;;5036386;28;20024;-62
2023/05/07 07:54:09;;;;;;;2.42;1.10;;;22.00;1.00;;;;;;5043998;28;20109;-62
2023/05/07 07:56:34;;;;;;;1.45;1.00;;;22.10;1.00;;;;;;5015714;28;20030;-62
2023/05/07 07:59:00;;;;;;;1.27;1.20;;;22.10;1.00;;;;;;5033541;28;20029;-62
2023/05/07 08:01:26;;;;;;;1.83;1.50;;;22.20;1.00;;;;;;5033417;28;20083;-62
2023/05/07 08:03:52;;;;;;;3.05;1.52;;;22.20;1.00;;;;;;5033324;28;20387;-62
2023/05/07 08:06:18;;;;;;;1.52;1.42;;;22.20;1.00;;;;;;5033685;28;20044;-62
2023/05/07 08:08:44;;;;;;;2.00;1.50;;;22.30;1.00;;;;;;5033291;28;20036;-62
2023/05/07 08:11:10;;;;;;;2.42;2.05;;;22.40;1.00;;;;;;5033259;28;20394;-62
2023/05/07 08:13:37;;;;;;;1.70;1.60;;;22.50;1.00;;;;;;5033528;28;20036;-62
2023/05/07 08:16:04;;;;;;;1.75;1.65;;;22.60;1.00;;;;;;5032587;28;20025;-62
2023/05/07 08:18:29;;;;;;;1.85;1.67;;;22.70;1.00;;;;;;5033032;28;20510;-62
2023/05/07 08:20:55;;;;;;;1.77;1.60;;;22.70;1.00;;;;;;5033272;28;20022;-62
2023/05/07 08:23:21;;;;;;;1.63;1.23;;;22.60;1.00;;;;;;5031737;28;20037;-63
2023/05/07 08:25:47;;;;;;;1.48;1.25;;;22.70;1.00;;;;;;5019551;28;20033;-62
2023/05/07 08:28:13;;;;;;;2.40;1.50;;;22.80;1.00;;;;;;5033081;28;20446;-62
2023/05/07 08:30:39;;;;;;;2.88;1.33;;;23.00;1.00;;;;;;5032982;28;20021;-62
2023/05/07 08:33:04;;;;;;;2.85;1.58;;;23.00;1.00;;;;;;5032980;28;20033;-63
2023/05/07 08:35:30;;;;;;;1.48;1.30;;;23.00;1.00;;;;;;5032962;28;20029;-62
2023/05/07 08:37:56;;;;;;;3.80;1.75;;;23.10;1.00;;;;;;5033416;28;20383;-63
2023/05/07 08:40:25;;;;;;;3.28;1.85;;;23.10;1.00;;;;;;5032774;28;20041;-62
2023/05/07 08:42:53;;;;;;;1.60;1.50;;;23.20;1.00;;;;;;5032840;28;20125;-60
2023/05/07 08:45:19;;;;;;;1.80;1.70;;;23.20;1.00;;;;;;5032879;28;20541;-60
2023/05/07 08:47:51;;;;;;;1.58;1.48;;;23.00;1.00;;;;;;5032647;28;20033;-63
2023/05/07 08:50:17;;;;;;;2.10;1.88;;;23.00;1.00;;;;;;5033137;28;20108;-62
2023/05/07 08:52:43;;;;;;;2.72;1.58;;;23.10;1.00;;;;;;5032848;28;20065;-61
2023/05/07 08:55:09;;;;;;;1.80;1.67;;;23.20;1.00;;;;;;5033027;28;20025;-61
2023/05/07 08:57:35;;;;;;;2.05;1.95;;;23.20;1.00;;;;;;5032764;28;20048;-61
2023/05/07 09:00:03;;;;;;;1.75;1.65;;;23.30;1.00;;;;;;5032853;28;20017;-62
2023/05/07 09:02:29;;;;;;;5.28;2.42;;;23.40;1.00;;;;;;5032531;28;20048;-61
2023/05/07 09:04:55;;;;;;;2.05;1.85;;;23.30;1.00;;;;;;5031547;28;20396;-61
2023/05/07 09:07:21;;;;;;;4.05;2.38;;;23.50;1.00;;;;;;5032562;28;20033;-61
2023/05/07 09:09:47;;;;;;;2.28;2.00;;;23.60;1.00;;;;;;5032616;28;20017;-61
2023/05/07 09:12:12;;;;;;;4.43;2.40;;;23.80;1.00;;;;;;5032634;28;20037;-61
2023/05/07 09:14:39;;;;;;;2.53;2.33;;;23.80;1.00;;;;;;5032615;28;20033;-61
2023/05/07 09:17:05;;;;;;;2.10;2.00;;;23.70;1.00;;;;;;5032472;28;20040;-61
2023/05/07 09:19:31;;;;;;;2.45;2.25;;;23.70;1.00;;;;;;5032572;28;20014;-61
2023/05/07 09:22:04;;;;;;;2.25;2.15;;;23.70;1.00;;;;;;5031471;28;20037;-62
2023/05/07 09:24:34;;;;;;;2.55;1.90;;;23.80;1.00;;;;;;5019610;28;20025;-61
2023/05/07 09:27:01;;;;;;;3.53;2.30;;;23.80;1.00;;;;;;5032684;28;20487;-61
2023/05/07 09:29:29;;;;;;;6.65;2.53;;;23.90;1.00;;;;;;5041683;28;20087;-61
2023/05/07 09:31:55;;;;;;;2.67;2.47;;;24.00;1.00;;;;;;5044496;28;20029;-61
2023/05/07 09:34:22;;;;;;;2.90;2.70;;;23.90;1.00;;;;;;5036053;28;20049;-61
2023/05/07 09:36:47;;;;;;;3.30;2.55;;;24.00;1.00;;;;;;5036887;28;20056;-61
2023/05/07 09:39:13;;;;;;;3.38;3.15;;;24.10;1.00;;;;;;5035804;28;20018;-61
2023/05/07 09:41:46;;;;;;;3.08;2.38;;;24.10;1.00;;;;;;5036141;28;20045;-61
2023/05/07 09:44:14;;;;;;;2.10;2.00;;;24.10;1.00;;;;;;5036135;28;20033;-61
2023/05/07 09:46:43;;;;;;;3.55;2.38;;;24.00;1.00;;;;;;5036028;28;20521;-61
2023/05/07 09:49:13;;;;;;;2.65;2.45;;;24.10;1.00;;;;;;5035739;28;20036;-61
2023/05/07 09:51:48;;;;;;;2.47;2.15;;;24.10;1.00;;;;;;5036239;28;20033;-61
2023/05/07 09:54:14;;;;;;;3.70;3.17;;;24.20;1.00;;;;;;5035915;28;20142;-62
2023/05/07 09:56:43;;;;;;;2.67;2.47;;;24.10;1.00;;;;;;5025350;28;20065;-61
2023/05/07 09:59:12;;;;;;;4.40;2.90;;;24.00;1.00;;;;;;5036171;28;20025;-61
2023/05/07 10:01:40;;;;;;;4.40;2.55;;;24.00;1.00;;;;;;5035853;28;20091;-62
2023/05/07 10:04:08;;;;;;;2.95;2.45;;;24.00;1.00;;;;;;5035579;28;20395;-62
2023/05/07 10:06:34;;;;;;;2.88;2.67;;;24.10;1.00;;;;;;5035683;28;20021;-62
2023/05/07 10:09:00;;;;;;;3.50;3.22;;;24.20;1.00;;;;;;5024887;28;20029;-62
2023/05/07 10:11:27;;;;;;;4.20;3.90;;;24.30;1.00;;;;;;5035679;28;20022;-62
2023/05/07 10:13:53;;;;;;;3.03;2.80;;;24.40;1.00;;;;;;5035440;28;20029;-62
2023/05/07 10:16:20;;;;;;;5.15;3.08;;;24.40;1.00;;;;;;5035608;28;20112;-62
2023/05/07 10:18:46;;;;;;;3.17;2.97;;;24.60;1.00;;;;;;5035316;28;20464;-62
2023/05/07 10:21:23;;;;;;;3.15;2.80;;;24.50;1.00;;;;;;5035539;28;20045;-61
2023/05/07 10:24:02;;;;;;;3.75;2.17;;;24.50;1.00;;;;;;5034121;28;20036;-61
2023/05/07 10:26:29;;;;;;;2.60;2.28;;;24.30;1.00;;;;;;5035490;28;20017;-62
2023/05/07 10:29:01;;;;;;;2.40;2.17;;;24.20;1.00;;;;;;5034026;28;20087;-61
2023/05/07 10:31:32;;;;;;;2.45;2.25;;;24.40;1.00;;;;;;5035283;28;20021;-61
2023/05/07 10:33:59;;;;;;;2.50;2.30;;;24.40;1.00;;;;;;5035127;28;20022;-61
2023/05/07 10:36:26;;;;;;;2.83;2.58;;;24.50;1.00;;;;;;5035207;28;20112;-61
2023/05/07 10:38:52;;;;;;;3.10;2.75;;;24.40;1.00;;;;;;5034973;28;20037;-61
2023/05/07 10:41:18;;;;;;;2.97;2.78;;;24.40;1.00;;;;;;5034529;28;20111;-61
2023/05/07 10:43:45;;;;;;;2.30;2.10;;;24.40;1.00;;;;;;5035011;28;20025;-61
2023/05/07 10:46:22;;;;;;;2.53;2.28;;;24.60;1.00;;;;;;5034902;28;20557;-61
2023/05/07 10:49:04;;;;;;;2.33;2.13;;;24.60;1.00;;;;;;5034840;28;20426;-61
2023/05/07 10:51:32;;;;;;;3.40;2.20;;;24.70;1.00;;;;;;5034926;28;20053;-61
2023/05/07 10:54:09;;;;;;;4.68;2.17;;;24.70;1.00;;;;;;5035348;28;20037;-61
2023/05/07 10:56:37;;;;;;;2.92;2.30;;;24.90;1.00;;;;;;5034641;28;20036;-62
2023/05/07 10:59:26;;;;;;;2.75;2.55;;;25.00;1.00;;;;;;5033624;28;20071;-62
2023/05/07 11:01:57;;;;;;;2.25;2.13;;;25.10;1.00;;;;;;5034516;28;20068;-62
2023/05/07 11:04:26;;;;;;;4.95;2.10;;;25.30;1.00;;;;;;5034541;28;20472;-61
2023/05/07 11:07:08;;;;;;;2.63;2.50;;;25.40;1.00;;;;;;5034357;28;20459;-62
2023/05/07 11:09:51;;;;;;;2.67;2.47;;;25.70;1.00;;;;;;5034482;28;20049;-62
2023/05/07 11:12:37;;;;;;;4.32;2.80;;;25.80;1.00;;;;;;5034414;28;20029;-62
2023/05/07 11:15:10;;;;;;;2.05;1.92;;;26.10;1.00;;;;;;5027223;28;20057;-62
2023/05/07 11:17:58;;;;;;;2.80;2.58;;;26.20;1.00;;;;;;5020533;28;20095;-62
2023/05/07 11:20:53;;;;;;;2.45;2.20;;;26.20;1.00;;;;;;5025724;28;20062;-62
2023/05/07 11:23:34;;;;;;;2.70;2.15;;;26.20;1.00;;;;;;5034202;28;20040;-62
2023/05/07 11:26:02;;;;;;;2.55;2.35;;;26.30;1.00;;;;;;5034199;28;20025;-62
2023/05/07 11:28:36;;;;;;;2.22;2.13;;;26.30;1.00;;;;;;5034167;28;20042;-62
2023/05/07 11:31:02;;;;;;;2.75;2.38;;;26.40;1.00;;;;;;5034340;28;20101;-62
2023/05/07 11:33:29;;;;;;;3.00;2.75;;;26.20;1.00;;;;;;5033909;28;20021;-62
2023/05/07 11:35:56;;;;;;;2.30;2.10;;;26.30;1.00;;;;;;5034023;28;20045;-62
2023/05/07 11:38:22;;;;;;;2.25;2.15;;;26.40;1.00;;;;;;5033916;28;20047;-62
2023/05/07 11:40:53;;;;;;;2.58;2.38;;;26.70;1.00;;;;;;5033596;28;20053;-63
2023/05/07 11:43:19;;;;;;;2.40;2.30;;;27.30;1.00;;;;;;5033993;28;20040;-63
2023/05/07 11:45:49;;;;;;;2.65;2.53;;;27.80;1.00;;;;;;5033890;28;20426;-63
2023/05/07 11:48:15;;;;;;;2.30;2.10;;;28.30;1.00;;;;;;5020534;28;20029;-61
2023/05/07 11:51:04;;;;;;;2.30;2.20;;;29.00;1.00;;;;;;5033256;28;20495;-62
2023/05/07 11:53:39;;;;;;;2.63;2.42;;;30.10;1.00;;;;;;5033678;28;20037;-62
2023/05/07 11:56:09;;;;;;;2.72;2.60;;;31.20;99.90;;;;;;5033738;28;20025;-62
2023/05/07 11:58:35;;;;;;;2.70;2.50;;;31.80;99.90;;;;;;5033458;28;20029;-62
2023/05/07 12:01:00;;;;;;;3.15;2.95;;;32.40;99.90;;;;;;5033509;28;20033;-62
2023/05/07 12:03:26;;;;;;;2.75;2.55;;;34.70;99.90;;;;;;5033515;28;20045;-62
2023/05/07 12:05:52;;;;;;;2.83;2.63;;;36.90;99.90;;;;;;5033449;28;20487;-63
2023/05/07 12:08:19;;;;;;;3.60;3.35;;;39.10;99.90;;;;;;5033413;28;20029;-63
2023/05/07 12:10:47;;;;;;;3.20;3.00;;;39.60;99.90;;;;;;5033713;28;20038;-63
2023/05/07 12:13:22;;;;;;;3.15;2.85;;;40.80;99.90;;;;;;5033404;28;20033;-63
2023/05/07 12:15:52;;;;;;;2.92;2.80;;;40.80;99.90;;;;;;5033214;28;20057;-63
2023/05/07 12:18:18;;;;;;;2.47;2.38;;;39.50;99.90;;;;;;5033207;28;20045;-63
2023/05/07 12:20:44;;;;;;;2.75;2.65;;;36.30;99.90;;;;;;5033399;28;20022;-63
2023/05/07 12:23:10;;;;;;;2.30;2.20;;;34.50;99.90;;;;;;5033219;28;20033;-63
2023/05/07 12:25:46;;;;;;;2.63;2.42;;;33.40;99.90;;;;;;5033268;28;20040;-62
2023/05/07 12:28:15;;;;;;;2.83;2.55;;;32.90;99.90;;;;;;5033230;28;20028;-63
2023/05/07 12:30:42;;;;;;;3.28;2.90;;;32.00;99.90;;;;;;5033239;28;20413;-63
2023/05/07 12:33:07;;;;;;;2.65;2.55;;;31.70;99.90;;;;;;5033272;28;20037;-63
2023/05/07 12:35:39;;;;;;;2.70;2.50;;;31.10;99.90;;;;;;5032988;28;20156;-62
2023/05/07 12:38:11;;;;;;;4.47;2.50;;;30.60;99.90;;;;;;5032883;28;20020;-63
2023/05/07 12:40:40;;;;;;;3.50;2.33;;;30.10;99.90;;;;;;5030428;28;20056;-62
2023/05/07 12:43:06;;;;;;;2.28;2.17;;;30.20;99.90;;;;;;5021948;28;20476;-63
2023/05/07 12:45:35;;;;;;;2.20;2.00;;;30.50;99.90;;;;;;5032977;28;20025;-63
2023/05/07 12:48:02;;;;;;;2.65;2.50;;;30.80;99.90;;;;;;5032675;28;20479;-63
2023/05/07 12:50:32;;;;;;;2.88;2.67;;;31.70;99.90;;;;;;5032927;28;20021;-63
2023/05/07 12:52:58;;;;;;;2.58;2.42;;;33.80;99.90;;;;;;5033017;28;20038;-63
2023/05/07 12:55:24;;;;;;;6.93;2.90;;;35.90;99.90;;;;;;5032717;28;20018;-62